sensor_id;sensor_type;location;lat;lon;timestamp;P1;durP1;ratioP1;P2;durP2;ratioP2
36253;SDS011;22291;52.250;21.228;2023-05-07T00:00:39;74.73;;;69.70;;
36253;SDS011;22291;52.250;21.228;2023-05-07T00:03:07;76.17;;;70.83;;
36253;SDS011;22291;52.250;21.228;2023-05-07T00:05:33;69.53;;;65.03;;
36253;SDS011;22291;52.250;21.228;2023-05-07T00:07:59;71.80;;;66.80;;
36253;SDS011;22291;52.250;21.228;2023-05-07T00:10:25;33.00;;;30.45;;
36253;SDS011;22291;52.250;21.228;2023-05-07T00:12:51;12.73;;;5.10;;
36253;SDS011;22291;52.250;21.228;2023-05-07T00:15:17;7.60;;;5.00;;
36253;SDS011;22291;52.250;21.228;2023-05-07T00:17:43;9.28;;;6.37;;
36253;SDS011;22291;52.250;21.228;2023-05-07T00:20:10;8.80;;;5.50;;
36253;SDS011;22291;52.250;21.228;2023-05-07T00:22:37;81.40;;;75.75;;
36253;SDS011;22291;52.250;21.228;2023-05-07T00:25:04;79.43;;;74.03;;
36253;SDS011;22291;52.250;21.228;2023-05-07T00:27:31;56.83;;;52.97;;
36253;SDS011;22291;52.250;21.228;2023-05-07T00:29:57;79.00;;;73.40;;
36253;SDS011;22291;52.250;21.228;2023-05-07T00:32:23;78.37;;;73.00;;
36253;SDS011;22291;52.250;21.228;2023-05-07T00:34:49;77.00;;;71.70;;
36253;SDS011;22291;52.250;21.228;2023-05-07T00:37:16;78.78;;;73.42;;
36253;SDS011;22291;52.250;21.228;2023-05-07T00:39:42;78.73;;;73.37;;
36253;SDS011;22291;52.250;21.228;2023-05-07T00:42:08;74.92;;;69.92;;
36253;SDS011;22291;52.250;21.228;2023-05-07T00:44:34;77.57;;;72.43;;
36253;SDS011;22291;52.250;21.228;2023-05-07T00:47:01;74.17;;;69.17;;
36253;SDS011;22291;52.250;21.228;2023-05-07T00:49:38;56.02;;;52.30;;
36253;SDS011;22291;52.250;21.228;2023-05-07T00:52:08;54.40;;;50.85;;
36253;SDS011;22291;52.250;21.228;2023-05-07T00:57:02;73.87;;;69.07;;
36253;SDS011;22291;52.250;21.228;2023-05-07T00:59:30;75.80;;;70.70;;
36253;SDS011;22291;52.250;21.228;2023-05-07T01:01:57;72.40;;;67.77;;
36253;SDS011;22291;52.250;21.228;2023-05-07T01:04:23;73.50;;;68.63;;
36253;SDS011;22291;52.250;21.228;2023-05-07T01:06:49;74.40;;;69.67;;
36253;SDS011;22291;52.250;21.228;2023-05-07T01:09:17;74.70;;;69.77;;
36253;SDS011;22291;52.250;21.228;2023-05-07T01:11:44;72.73;;;68.07;;
36253;SDS011;22291;52.250;21.228;2023-05-07T01:14:10;74.30;;;69.40;;
36253;SDS011;22291;52.250;21.228;2023-05-07T01:16:36;72.33;;;67.70;;
36253;SDS011;22291;52.250;21.228;2023-05-07T01:19:03;70.43;;;66.07;;
36253;SDS011;22291;52.250;21.228;2023-05-07T01:21:29;73.37;;;68.50;;
36253;SDS011;22291;52.250;21.228;2023-05-07T01:23:58;71.12;;;66.77;;
36253;SDS011;22291;52.250;21.228;2023-05-07T01:26:26;69.03;;;64.80;;
36253;SDS011;22291;52.250;21.228;2023-05-07T01:28:53;67.80;;;63.50;;
36253;SDS011;22291;52.250;21.228;2023-05-07T01:31:19;68.33;;;63.93;;
36253;SDS011;22291;52.250;21.228;2023-05-07T01:33:45;67.50;;;63.40;;
36253;SDS011;22291;52.250;21.228;2023-05-07T01:36:13;76.92;;;71.82;;
36253;SDS011;22291;52.250;21.228;2023-05-07T01:38:40;74.90;;;69.95;;
36253;SDS011;22291;52.250;21.228;2023-05-07T01:41:07;72.90;;;68.10;;
36253;SDS011;22291;52.250;21.228;2023-05-07T01:43:33;71.63;;;67.03;;
36253;SDS011;22291;52.250;21.228;2023-05-07T01:45:59;71.13;;;66.43;;
36253;SDS011;22291;52.250;21.228;2023-05-07T01:48:27;74.13;;;69.17;;
36253;SDS011;22291;52.250;21.228;2023-05-07T01:50:54;71.10;;;66.50;;
36253;SDS011;22291;52.250;21.228;2023-05-07T01:53:21;72.20;;;67.70;;
36253;SDS011;22291;52.250;21.228;2023-05-07T01:55:47;72.53;;;67.77;;
36253;SDS011;22291;52.250;21.228;2023-05-07T01:58:13;70.43;;;66.03;;
36253;SDS011;22291;52.250;21.228;2023-05-07T02:00:39;73.70;;;68.93;;
36253;SDS011;22291;52.250;21.228;2023-05-07T02:03:09;71.13;;;66.53;;
36253;SDS011;22291;52.250;21.228;2023-05-07T02:05:35;74.17;;;69.47;;
36253;SDS011;22291;52.250;21.228;2023-05-07T02:08:01;73.77;;;69.07;;
36253;SDS011;22291;52.250;21.228;2023-05-07T02:10:28;73.43;;;68.83;;
36253;SDS011;22291;52.250;21.228;2023-05-07T02:12:54;68.53;;;64.07;;
36253;SDS011;22291;52.250;21.228;2023-05-07T02:15:21;70.00;;;65.30;;
36253;SDS011;22291;52.250;21.228;2023-05-07T02:20:28;71.10;;;66.57;;
36253;SDS011;22291;52.250;21.228;2023-05-07T02:22:54;51.27;;;48.03;;
36253;SDS011;22291;52.250;21.228;2023-05-07T02:25:20;75.23;;;70.33;;
36253;SDS011;22291;52.250;21.228;2023-05-07T02:27:46;71.97;;;67.57;;
36253;SDS011;22291;52.250;21.228;2023-05-07T02:30:13;56.03;;;52.07;;
36253;SDS011;22291;52.250;21.228;2023-05-07T02:32:41;49.50;;;46.07;;
36253;SDS011;22291;52.250;21.228;2023-05-07T02:35:07;21.20;;;19.43;;
36253;SDS011;22291;52.250;21.228;2023-05-07T02:37:34;4.55;;;3.62;;
36253;SDS011;22291;52.250;21.228;2023-05-07T02:40:00;5.80;;;3.75;;
36253;SDS011;22291;52.250;21.228;2023-05-07T02:42:26;4.05;;;3.10;;
36253;SDS011;22291;52.250;21.228;2023-05-07T02:44:52;5.05;;;3.80;;
36253;SDS011;22291;52.250;21.228;2023-05-07T02:47:18;7.28;;;3.70;;
36253;SDS011;22291;52.250;21.228;2023-05-07T02:49:44;6.22;;;4.30;;
36253;SDS011;22291;52.250;21.228;2023-05-07T02:52:10;76.40;;;71.42;;
36253;SDS011;22291;52.250;21.228;2023-05-07T02:54:36;13.90;;;12.75;;
36253;SDS011;22291;52.250;21.228;2023-05-07T02:57:02;5.47;;;3.77;;
36253;SDS011;22291;52.250;21.228;2023-05-07T02:59:28;78.30;;;73.10;;
36253;SDS011;22291;52.250;21.228;2023-05-07T03:01:54;75.30;;;70.40;;
36253;SDS011;22291;52.250;21.228;2023-05-07T03:04:20;77.23;;;71.83;;
36253;SDS011;22291;52.250;21.228;2023-05-07T03:06:46;56.58;;;52.60;;
36253;SDS011;22291;52.250;21.228;2023-05-07T03:09:12;4.87;;;3.60;;
36253;SDS011;22291;52.250;21.228;2023-05-07T03:11:38;6.00;;;3.80;;
36253;SDS011;22291;52.250;21.228;2023-05-07T03:14:04;77.50;;;72.30;;
36253;SDS011;22291;52.250;21.228;2023-05-07T03:16:30;77.90;;;72.80;;
36253;SDS011;22291;52.250;21.228;2023-05-07T03:18:57;74.42;;;69.67;;
36253;SDS011;22291;52.250;21.228;2023-05-07T03:21:23;74.27;;;69.33;;
36253;SDS011;22291;52.250;21.228;2023-05-07T03:23:49;72.70;;;68.00;;
36253;SDS011;22291;52.250;21.228;2023-05-07T03:26:15;73.73;;;68.93;;
36253;SDS011;22291;52.250;21.228;2023-05-07T03:28:41;74.43;;;69.67;;
36253;SDS011;22291;52.250;21.228;2023-05-07T03:31:07;71.47;;;66.83;;
36253;SDS011;22291;52.250;21.228;2023-05-07T03:33:33;75.03;;;69.97;;
36253;SDS011;22291;52.250;21.228;2023-05-07T03:36:00;71.90;;;67.30;;
36253;SDS011;22291;52.250;21.228;2023-05-07T03:38:27;76.90;;;71.85;;
36253;SDS011;22291;52.250;21.228;2023-05-07T03:40:53;71.77;;;67.27;;
36253;SDS011;22291;52.250;21.228;2023-05-07T03:43:19;73.10;;;68.60;;
36253;SDS011;22291;52.250;21.228;2023-05-07T03:45:45;72.70;;;68.13;;
36253;SDS011;22291;52.250;21.228;2023-05-07T03:48:11;70.60;;;66.10;;
36253;SDS011;22291;52.250;21.228;2023-05-07T03:50:37;70.03;;;65.60;;
36253;SDS011;22291;52.250;21.228;2023-05-07T03:53:03;74.87;;;69.97;;
36253;SDS011;22291;52.250;21.228;2023-05-07T03:55:29;71.57;;;67.17;;
36253;SDS011;22291;52.250;21.228;2023-05-07T03:57:55;72.30;;;67.70;;
36253;SDS011;22291;52.250;21.228;2023-05-07T04:00:22;72.43;;;67.73;;
36253;SDS011;22291;52.250;21.228;2023-05-07T04:02:48;70.70;;;66.27;;
36253;SDS011;22291;52.250;21.228;2023-05-07T04:05:14;70.33;;;65.93;;
36253;SDS011;22291;52.250;21.228;2023-05-07T04:07:41;70.67;;;66.27;;
36253;SDS011;22291;52.250;21.228;2023-05-07T04:10:07;73.63;;;68.90;;
36253;SDS011;22291;52.250;21.228;2023-05-07T04:12:35;74.40;;;69.70;;
36253;SDS011;22291;52.250;21.228;2023-05-07T04:15:01;71.13;;;66.50;;
36253;SDS011;22291;52.250;21.228;2023-05-07T04:17:28;76.90;;;71.70;;
36253;SDS011;22291;52.250;21.228;2023-05-07T04:19:54;73.10;;;68.40;;
36253;SDS011;22291;52.250;21.228;2023-05-07T04:22:20;73.30;;;68.33;;
36253;SDS011;22291;52.250;21.228;2023-05-07T04:24:46;72.60;;;68.00;;
36253;SDS011;22291;52.250;21.228;2023-05-07T04:27:12;71.07;;;66.73;;
36253;SDS011;22291;52.250;21.228;2023-05-07T04:29:38;72.80;;;68.03;;
36253;SDS011;22291;52.250;21.228;2023-05-07T04:32:06;72.67;;;68.23;;
36253;SDS011;22291;52.250;21.228;2023-05-07T04:34:32;71.47;;;67.00;;
36253;SDS011;22291;52.250;21.228;2023-05-07T04:36:58;73.63;;;68.73;;
36253;SDS011;22291;52.250;21.228;2023-05-07T04:39:25;73.07;;;68.57;;
36253;SDS011;22291;52.250;21.228;2023-05-07T04:41:51;71.03;;;66.60;;
36253;SDS011;22291;52.250;21.228;2023-05-07T04:44:17;72.30;;;67.50;;
36253;SDS011;22291;52.250;21.228;2023-05-07T04:46:43;71.30;;;66.80;;
36253;SDS011;22291;52.250;21.228;2023-05-07T04:49:10;70.97;;;66.33;;
36253;SDS011;22291;52.250;21.228;2023-05-07T04:51:37;73.37;;;68.77;;
36253;SDS011;22291;52.250;21.228;2023-05-07T04:54:04;71.50;;;66.90;;
36253;SDS011;22291;52.250;21.228;2023-05-07T04:56:30;72.23;;;67.73;;
36253;SDS011;22291;52.250;21.228;2023-05-07T04:58:56;71.13;;;66.53;;
36253;SDS011;22291;52.250;21.228;2023-05-07T05:01:22;68.40;;;64.23;;
36253;SDS011;22291;52.250;21.228;2023-05-07T05:03:48;69.70;;;65.37;;
36253;SDS011;22291;52.250;21.228;2023-05-07T05:06:14;69.37;;;64.77;;
36253;SDS011;22291;52.250;21.228;2023-05-07T05:08:41;69.43;;;65.23;;
36253;SDS011;22291;52.250;21.228;2023-05-07T05:11:07;68.90;;;64.47;;
36253;SDS011;22291;52.250;21.228;2023-05-07T05:13:33;71.33;;;66.93;;
36253;SDS011;22291;52.250;21.228;2023-05-07T05:15:59;70.97;;;66.67;;
36253;SDS011;22291;52.250;21.228;2023-05-07T05:18:25;72.17;;;67.27;;
36253;SDS011;22291;52.250;21.228;2023-05-07T05:20:51;72.70;;;68.10;;
36253;SDS011;22291;52.250;21.228;2023-05-07T05:23:18;71.37;;;66.90;;
36253;SDS011;22291;52.250;21.228;2023-05-07T05:25:45;70.07;;;65.63;;
36253;SDS011;22291;52.250;21.228;2023-05-07T05:28:11;68.93;;;64.53;;
36253;SDS011;22291;52.250;21.228;2023-05-07T05:30:38;70.83;;;66.33;;
36253;SDS011;22291;52.250;21.228;2023-05-07T05:33:05;51.77;;;48.53;;
36253;SDS011;22291;52.250;21.228;2023-05-07T05:35:31;8.63;;;8.13;;
36253;SDS011;22291;52.250;21.228;2023-05-07T05:37:57;54.50;;;51.10;;
36253;SDS011;22291;52.250;21.228;2023-05-07T05:40:23;6.50;;;6.20;;
36253;SDS011;22291;52.250;21.228;2023-05-07T05:42:49;59.17;;;55.47;;
36253;SDS011;22291;52.250;21.228;2023-05-07T05:45:15;54.43;;;51.13;;
36253;SDS011;22291;52.250;21.228;2023-05-07T05:47:41;76.03;;;70.90;;
36253;SDS011;22291;52.250;21.228;2023-05-07T05:50:07;5.20;;;5.00;;
36253;SDS011;22291;52.250;21.228;2023-05-07T05:52:35;34.33;;;32.30;;
36253;SDS011;22291;52.250;21.228;2023-05-07T05:55:01;5.80;;;5.58;;
36253;SDS011;22291;52.250;21.228;2023-05-07T05:57:27;8.97;;;8.50;;
36253;SDS011;22291;52.250;21.228;2023-05-07T05:59:53;6.57;;;6.27;;
36253;SDS011;22291;52.250;21.228;2023-05-07T06:02:19;4.87;;;4.67;;
36253;SDS011;22291;52.250;21.228;2023-05-07T06:04:45;6.30;;;6.00;;
36253;SDS011;22291;52.250;21.228;2023-05-07T06:07:12;4.87;;;4.67;;
36253;SDS011;22291;52.250;21.228;2023-05-07T06:09:38;8.27;;;7.87;;
36253;SDS011;22291;52.250;21.228;2023-05-07T06:12:05;52.30;;;49.17;;
36253;SDS011;22291;52.250;21.228;2023-05-07T06:14:32;77.80;;;72.83;;
36253;SDS011;22291;52.250;21.228;2023-05-07T06:16:58;75.00;;;70.17;;
36253;SDS011;22291;52.250;21.228;2023-05-07T06:19:23;54.57;;;51.20;;
36253;SDS011;22291;52.250;21.228;2023-05-07T06:21:52;68.87;;;63.75;;
36253;SDS011;22291;52.250;21.228;2023-05-07T06:24:18;77.87;;;73.07;;
36253;SDS011;22291;52.250;21.228;2023-05-07T06:26:44;42.90;;;39.53;;
36253;SDS011;22291;52.250;21.228;2023-05-07T06:29:10;29.98;;;27.50;;
36253;SDS011;22291;52.250;21.228;2023-05-07T06:31:36;77.95;;;72.95;;
36253;SDS011;22291;52.250;21.228;2023-05-07T06:34:03;72.92;;;68.25;;
36253;SDS011;22291;52.250;21.228;2023-05-07T06:36:29;76.47;;;71.57;;
36253;SDS011;22291;52.250;21.228;2023-05-07T06:38:55;72.03;;;67.17;;
36253;SDS011;22291;52.250;21.228;2023-05-07T06:41:21;69.87;;;65.57;;
36253;SDS011;22291;52.250;21.228;2023-05-07T06:43:47;74.30;;;69.70;;
36253;SDS011;22291;52.250;21.228;2023-05-07T06:46:13;75.90;;;70.97;;
36253;SDS011;22291;52.250;21.228;2023-05-07T06:48:40;71.30;;;66.40;;
36253;SDS011;22291;52.250;21.228;2023-05-07T06:51:06;70.77;;;66.40;;
36253;SDS011;22291;52.250;21.228;2023-05-07T06:53:32;17.37;;;16.40;;
36253;SDS011;22291;52.250;21.228;2023-05-07T06:56:00;79.77;;;74.47;;
36253;SDS011;22291;52.250;21.228;2023-05-07T06:58:26;77.07;;;71.87;;
36253;SDS011;22291;52.250;21.228;2023-05-07T07:00:52;52.53;;;49.20;;
36253;SDS011;22291;52.250;21.228;2023-05-07T07:03:18;76.60;;;71.67;;
36253;SDS011;22291;52.250;21.228;2023-05-07T07:05:44;78.37;;;73.07;;
36253;SDS011;22291;52.250;21.228;2023-05-07T07:08:10;70.93;;;66.43;;
36253;SDS011;22291;52.250;21.228;2023-05-07T07:10:36;53.13;;;49.73;;
36253;SDS011;22291;52.250;21.228;2023-05-07T07:13:02;49.90;;;46.73;;
36253;SDS011;22291;52.250;21.228;2023-05-07T07:15:29;73.53;;;68.77;;
36253;SDS011;22291;52.250;21.228;2023-05-07T07:17:55;72.03;;;67.43;;
36253;SDS011;22291;52.250;21.228;2023-05-07T07:20:21;72.00;;;67.63;;
36253;SDS011;22291;52.250;21.228;2023-05-07T07:22:47;54.37;;;50.90;;
36253;SDS011;22291;52.250;21.228;2023-05-07T07:25:13;72.57;;;68.10;;
36253;SDS011;22291;52.250;21.228;2023-05-07T07:27:39;77.57;;;72.17;;
36253;SDS011;22291;52.250;21.228;2023-05-07T07:30:09;31.63;;;29.70;;
36253;SDS011;22291;52.250;21.228;2023-05-07T07:32:36;33.58;;;31.50;;
36253;SDS011;22291;52.250;21.228;2023-05-07T07:35:06;69.47;;;65.17;;
36253;SDS011;22291;52.250;21.228;2023-05-07T07:37:35;59.13;;;55.50;;
36253;SDS011;22291;52.250;21.228;2023-05-07T07:40:01;51.68;;;48.48;;
36253;SDS011;22291;52.250;21.228;2023-05-07T07:42:29;39.47;;;36.93;;
36253;SDS011;22291;52.250;21.228;2023-05-07T07:44:55;68.57;;;64.27;;
36253;SDS011;22291;52.250;21.228;2023-05-07T07:47:23;75.83;;;71.07;;
36253;SDS011;22291;52.250;21.228;2023-05-07T07:49:51;71.67;;;67.20;;
36253;SDS011;22291;52.250;21.228;2023-05-07T07:52:18;36.00;;;33.80;;
36253;SDS011;22291;52.250;21.228;2023-05-07T07:54:45;72.43;;;67.93;;
36253;SDS011;22291;52.250;21.228;2023-05-07T07:57:11;71.97;;;67.00;;
36253;SDS011;22291;52.250;21.228;2023-05-07T07:59:40;72.33;;;67.73;;
36253;SDS011;22291;52.250;21.228;2023-05-07T08:02:07;71.07;;;66.60;;
36253;SDS011;22291;52.250;21.228;2023-05-07T08:04:36;69.60;;;65.33;;
36253;SDS011;22291;52.250;21.228;2023-05-07T08:07:03;47.05;;;44.23;;
36253;SDS011;22291;52.250;21.228;2023-05-07T08:09:31;76.77;;;71.42;;
36253;SDS011;22291;52.250;21.228;2023-05-07T08:11:59;70.20;;;65.80;;
36253;SDS011;22291;52.250;21.228;2023-05-07T08:14:25;78.00;;;73.10;;
36253;SDS011;22291;52.250;21.228;2023-05-07T08:16:51;6.40;;;6.10;;
36253;SDS011;22291;52.250;21.228;2023-05-07T08:19:17;55.43;;;51.93;;
36253;SDS011;22291;52.250;21.228;2023-05-07T08:21:43;74.63;;;69.67;;
36253;SDS011;22291;52.250;21.228;2023-05-07T08:24:09;75.87;;;70.73;;
36253;SDS011;22291;52.250;21.228;2023-05-07T08:26:35;71.33;;;66.73;;
36253;SDS011;22291;52.250;21.228;2023-05-07T08:29:03;71.10;;;66.50;;
36253;SDS011;22291;52.250;21.228;2023-05-07T08:31:29;74.43;;;69.83;;
36253;SDS011;22291;52.250;21.228;2023-05-07T08:33:56;12.47;;;11.65;;
36253;SDS011;22291;52.250;21.228;2023-05-07T08:36:23;0.95;;;0.90;;
36253;SDS011;22291;52.250;21.228;2023-05-07T17:19:47;3.85;;;3.17;;
36253;SDS011;22291;52.250;21.228;2023-05-07T17:22:14;4.42;;;2.58;;
36253;SDS011;22291;52.250;21.228;2023-05-07T17:24:40;6.97;;;2.47;;
36253;SDS011;22291;52.250;21.228;2023-05-07T17:27:06;2.98;;;2.10;;
36253;SDS011;22291;52.250;21.228;2023-05-07T17:29:32;7.45;;;2.95;;
36253;SDS011;22291;52.250;21.228;2023-05-07T17:31:59;4.17;;;2.60;;
36253;SDS011;22291;52.250;21.228;2023-05-07T17:34:25;5.42;;;2.70;;
36253;SDS011;22291;52.250;21.228;2023-05-07T17:36:52;4.17;;;2.55;;
36253;SDS011;22291;52.250;21.228;2023-05-07T17:39:19;5.87;;;2.65;;
36253;SDS011;22291;52.250;21.228;2023-05-07T17:41:45;5.00;;;2.70;;
36253;SDS011;22291;52.250;21.228;2023-05-07T17:44:11;3.85;;;2.80;;
36253;SDS011;22291;52.250;21.228;2023-05-07T17:46:39;3.87;;;2.95;;
36253;SDS011;22291;52.250;21.228;2023-05-07T17:49:06;3.95;;;2.90;;
36253;SDS011;22291;52.250;21.228;2023-05-07T17:51:34;3.83;;;2.85;;
36253;SDS011;22291;52.250;21.228;2023-05-07T17:54:00;4.92;;;3.70;;
36253;SDS011;22291;52.250;21.228;2023-05-07T17:56:26;5.78;;;3.75;;
36253;SDS011;22291;52.250;21.228;2023-05-07T17:58:53;27.90;;;20.52;;
36253;SDS011;22291;52.250;21.228;2023-05-07T18:01:20;29.30;;;22.75;;
36253;SDS011;22291;52.250;21.228;2023-05-07T18:03:47;7.97;;;6.17;;
36253;SDS011;22291;52.250;21.228;2023-05-07T18:06:14;20.23;;;16.07;;
36253;SDS011;22291;52.250;21.228;2023-05-07T18:08:42;4.35;;;3.90;;
36253;SDS011;22291;52.250;21.228;2023-05-07T18:11:11;4.72;;;3.85;;
36253;SDS011;22291;52.250;21.228;2023-05-07T18:13:38;5.00;;;3.37;;
36253;SDS011;22291;52.250;21.228;2023-05-07T18:16:05;3.55;;;3.05;;
36253;SDS011;22291;52.250;21.228;2023-05-07T18:18:32;5.92;;;3.22;;
36253;SDS011;22291;52.250;21.228;2023-05-07T18:21:00;5.75;;;2.87;;
36253;SDS011;22291;52.250;21.228;2023-05-07T18:23:27;6.97;;;3.02;;
36253;SDS011;22291;52.250;21.228;2023-05-07T18:25:53;4.78;;;3.10;;
36253;SDS011;22291;52.250;21.228;2023-05-07T18:28:19;4.10;;;2.75;;
36253;SDS011;22291;52.250;21.228;2023-05-07T18:30:46;4.58;;;3.00;;
36253;SDS011;22291;52.250;21.228;2023-05-07T18:33:12;4.95;;;2.98;;
36253;SDS011;22291;52.250;21.228;2023-05-07T18:35:39;5.10;;;3.02;;
36253;SDS011;22291;52.250;21.228;2023-05-07T18:38:05;6.62;;;3.80;;
36253;SDS011;22291;52.250;21.228;2023-05-07T18:40:31;5.42;;;3.60;;
36253;SDS011;22291;52.250;21.228;2023-05-07T18:42:57;6.33;;;3.75;;
36253;SDS011;22291;52.250;21.228;2023-05-07T18:45:26;7.45;;;3.52;;
36253;SDS011;22291;52.250;21.228;2023-05-07T18:47:52;7.15;;;3.70;;
36253;SDS011;22291;52.250;21.228;2023-05-07T18:50:18;4.60;;;3.37;;
36253;SDS011;22291;52.250;21.228;2023-05-07T18:52:45;4.92;;;3.70;;
36253;SDS011;22291;52.250;21.228;2023-05-07T18:55:12;7.47;;;3.80;;
36253;SDS011;22291;52.250;21.228;2023-05-07T18:57:38;6.30;;;3.77;;
36253;SDS011;22291;52.250;21.228;2023-05-07T19:00:06;8.95;;;4.17;;
36253;SDS011;22291;52.250;21.228;2023-05-07T19:02:36;6.90;;;4.35;;
36253;SDS011;22291;52.250;21.228;2023-05-07T19:05:04;5.65;;;4.22;;
36253;SDS011;22291;52.250;21.228;2023-05-07T19:07:32;5.08;;;3.90;;
36253;SDS011;22291;52.250;21.228;2023-05-07T19:09:58;8.20;;;3.60;;
36253;SDS011;22291;52.250;21.228;2023-05-07T19:12:24;9.80;;;3.95;;
36253;SDS011;22291;52.250;21.228;2023-05-07T19:14:51;4.35;;;3.50;;
36253;SDS011;22291;52.250;21.228;2023-05-07T19:17:19;5.53;;;4.05;;
36253;SDS011;22291;52.250;21.228;2023-05-07T19:19:47;8.65;;;4.42;;
36253;SDS011;22291;52.250;21.228;2023-05-07T19:22:14;11.00;;;4.40;;
36253;SDS011;22291;52.250;21.228;2023-05-07T19:24:41;6.47;;;4.10;;
36253;SDS011;22291;52.250;21.228;2023-05-07T19:27:08;7.33;;;4.37;;
36253;SDS011;22291;52.250;21.228;2023-05-07T19:29:35;8.80;;;4.90;;
36253;SDS011;22291;52.250;21.228;2023-05-07T19:32:01;6.05;;;4.62;;
36253;SDS011;22291;52.250;21.228;2023-05-07T19:34:30;5.20;;;4.30;;
36253;SDS011;22291;52.250;21.228;2023-05-07T19:36:56;6.55;;;4.35;;
36253;SDS011;22291;52.250;21.228;2023-05-07T19:39:22;5.22;;;4.20;;
36253;SDS011;22291;52.250;21.228;2023-05-07T19:41:49;7.15;;;4.47;;
36253;SDS011;22291;52.250;21.228;2023-05-07T19:44:16;9.03;;;4.10;;
36253;SDS011;22291;52.250;21.228;2023-05-07T19:46:44;14.03;;;6.05;;
36253;SDS011;22291;52.250;21.228;2023-05-07T19:49:13;6.20;;;4.40;;
36253;SDS011;22291;52.250;21.228;2023-05-07T19:51:39;5.97;;;5.08;;
36253;SDS011;22291;52.250;21.228;2023-05-07T19:54:06;7.85;;;4.75;;
36253;SDS011;22291;52.250;21.228;2023-05-07T19:56:32;9.78;;;5.20;;
36253;SDS011;22291;52.250;21.228;2023-05-07T19:59:02;6.70;;;4.90;;
36253;SDS011;22291;52.250;21.228;2023-05-07T20:01:28;10.00;;;5.42;;
36253;SDS011;22291;52.250;21.228;2023-05-07T20:03:57;11.20;;;6.70;;
36253;SDS011;22291;52.250;21.228;2023-05-07T20:06:26;9.57;;;6.30;;
36253;SDS011;22291;52.250;21.228;2023-05-07T20:08:53;10.93;;;7.55;;
36253;SDS011;22291;52.250;21.228;2023-05-07T20:11:19;9.35;;;6.17;;
36253;SDS011;22291;52.250;21.228;2023-05-07T20:13:46;12.60;;;6.60;;
36253;SDS011;22291;52.250;21.228;2023-05-07T20:16:13;11.22;;;6.78;;
36253;SDS011;22291;52.250;21.228;2023-05-07T20:18:41;11.80;;;6.83;;
36253;SDS011;22291;52.250;21.228;2023-05-07T20:21:07;12.23;;;7.17;;
36253;SDS011;22291;52.250;21.228;2023-05-07T20:23:33;11.18;;;6.80;;
36253;SDS011;22291;52.250;21.228;2023-05-07T20:26:00;12.78;;;7.53;;
36253;SDS011;22291;52.250;21.228;2023-05-07T20:28:27;11.50;;;7.20;;
36253;SDS011;22291;52.250;21.228;2023-05-07T20:30:54;13.62;;;7.72;;
36253;SDS011;22291;52.250;21.228;2023-05-07T20:33:21;9.33;;;6.58;;
36253;SDS011;22291;52.250;21.228;2023-05-07T20:35:48;25.92;;;16.80;;
36253;SDS011;22291;52.250;21.228;2023-05-07T20:38:15;27.95;;;19.82;;
36253;SDS011;22291;52.250;21.228;2023-05-07T20:40:41;14.50;;;8.85;;
36253;SDS011;22291;52.250;21.228;2023-05-07T20:43:07;13.70;;;8.30;;
36253;SDS011;22291;52.250;21.228;2023-05-07T20:45:33;15.38;;;9.78;;
36253;SDS011;22291;52.250;21.228;2023-05-07T20:48:01;19.60;;;11.70;;
36253;SDS011;22291;52.250;21.228;2023-05-07T20:50:28;17.30;;;11.73;;
36253;SDS011;22291;52.250;21.228;2023-05-07T20:52:56;16.50;;;9.55;;
36253;SDS011;22291;52.250;21.228;2023-05-07T20:55:22;13.78;;;8.70;;
36253;SDS011;22291;52.250;21.228;2023-05-07T20:57:48;12.70;;;8.38;;
36253;SDS011;22291;52.250;21.228;2023-05-07T21:00:17;14.25;;;8.58;;
36253;SDS011;22291;52.250;21.228;2023-05-07T21:02:43;88.70;;;81.60;;
36253;SDS011;22291;52.250;21.228;2023-05-07T21:05:12;85.55;;;79.22;;
36253;SDS011;22291;52.250;21.228;2023-05-07T21:07:38;85.40;;;79.00;;
36253;SDS011;22291;52.250;21.228;2023-05-07T21:10:07;83.17;;;76.87;;
36253;SDS011;22291;52.250;21.228;2023-05-07T21:12:35;83.72;;;77.58;;
36253;SDS011;22291;52.250;21.228;2023-05-07T21:15:01;86.25;;;79.75;;
36253;SDS011;22291;52.250;21.228;2023-05-07T21:17:30;56.18;;;52.13;;
36253;SDS011;22291;52.250;21.228;2023-05-07T21:19:58;82.02;;;76.02;;
36253;SDS011;22291;52.250;21.228;2023-05-07T21:22:25;86.00;;;79.47;;
36253;SDS011;22291;52.250;21.228;2023-05-07T21:24:52;83.58;;;77.25;;
36253;SDS011;22291;52.250;21.228;2023-05-07T21:27:18;84.97;;;78.62;;
36253;SDS011;22291;52.250;21.228;2023-05-07T21:29:44;88.17;;;81.17;;
36253;SDS011;22291;52.250;21.228;2023-05-07T21:32:11;81.80;;;75.52;;
36253;SDS011;22291;52.250;21.228;2023-05-07T21:34:37;16.45;;;10.93;;
36253;SDS011;22291;52.250;21.228;2023-05-07T21:37:03;16.87;;;10.68;;
36253;SDS011;22291;52.250;21.228;2023-05-07T21:39:29;19.67;;;11.33;;
36253;SDS011;22291;52.250;21.228;2023-05-07T21:41:56;17.10;;;11.78;;
36253;SDS011;22291;52.250;21.228;2023-05-07T21:44:22;17.73;;;12.35;;
36253;SDS011;22291;52.250;21.228;2023-05-07T21:46:48;19.98;;;12.95;;
36253;SDS011;22291;52.250;21.228;2023-05-07T21:49:14;22.55;;;14.43;;
36253;SDS011;22291;52.250;21.228;2023-05-07T21:51:40;23.75;;;16.25;;
36253;SDS011;22291;52.250;21.228;2023-05-07T21:54:08;27.90;;;18.10;;
36253;SDS011;22291;52.250;21.228;2023-05-07T21:56:34;26.40;;;18.27;;
36253;SDS011;22291;52.250;21.228;2023-05-07T21:59:00;24.50;;;15.70;;
36253;SDS011;22291;52.250;21.228;2023-05-07T22:01:27;22.35;;;15.08;;
36253;SDS011;22291;52.250;21.228;2023-05-07T22:03:53;22.87;;;15.40;;
36253;SDS011;22291;52.250;21.228;2023-05-07T22:06:21;25.48;;;15.60;;
36253;SDS011;22291;52.250;21.228;2023-05-07T22:08:48;21.37;;;15.08;;
36253;SDS011;22291;52.250;21.228;2023-05-07T22:11:15;24.23;;;17.20;;
36253;SDS011;22291;52.250;21.228;2023-05-07T22:13:42;28.90;;;17.98;;
36253;SDS011;22291;52.250;21.228;2023-05-07T22:16:09;24.90;;;16.40;;
36253;SDS011;22291;52.250;21.228;2023-05-07T22:18:35;27.42;;;18.17;;
36253;SDS011;22291;52.250;21.228;2023-05-07T22:21:02;31.62;;;19.15;;
36253;SDS011;22291;52.250;21.228;2023-05-07T22:23:28;35.13;;;22.65;;
36253;SDS011;22291;52.250;21.228;2023-05-07T22:25:57;40.52;;;26.37;;
36253;SDS011;22291;52.250;21.228;2023-05-07T22:28:24;37.78;;;24.45;;
36253;SDS011;22291;52.250;21.228;2023-05-07T22:30:51;39.23;;;25.25;;
36253;SDS011;22291;52.250;21.228;2023-05-07T22:33:17;42.20;;;26.68;;
36253;SDS011;22291;52.250;21.228;2023-05-07T22:35:45;44.23;;;28.87;;
36253;SDS011;22291;52.250;21.228;2023-05-07T22:38:11;49.58;;;29.85;;
36253;SDS011;22291;52.250;21.228;2023-05-07T22:40:37;53.33;;;31.50;;
36253;SDS011;22291;52.250;21.228;2023-05-07T22:43:03;54.20;;;32.48;;
36253;SDS011;22291;52.250;21.228;2023-05-07T22:45:29;59.27;;;35.85;;
36253;SDS011;22291;52.250;21.228;2023-05-07T22:47:55;61.08;;;36.93;;
36253;SDS011;22291;52.250;21.228;2023-05-07T22:50:21;61.83;;;38.33;;
36253;SDS011;22291;52.250;21.228;2023-05-07T22:52:48;65.70;;;38.40;;
36253;SDS011;22291;52.250;21.228;2023-05-07T22:55:15;61.60;;;37.58;;
36253;SDS011;22291;52.250;21.228;2023-05-07T22:57:42;68.47;;;37.38;;